createdAt,value
2023-01-29T16:41:43.926Z,26.15
2023-01-29T17:16:36.095Z,25.85
2023-01-29T17:21:37.683Z,24.25
2023-01-29T17:26:37.575Z,21.75
2023-01-29T17:37:23.573Z,22.23
2023-01-29T17:42:23.129Z,19.90
2023-01-29T17:48:35.482Z,22.10
2023-01-29T18:00:31.204Z,21.85
2023-01-29T18:12:15.122Z,21.77
2023-01-29T18:17:29.016Z,23.58
2023-01-29T18:40:53.243Z,20.75
2023-01-29T18:58:28.997Z,21.30
2023-01-29T19:03:42.015Z,23.25
2023-01-29T19:08:48.237Z,29.38
2023-01-29T19:13:53.519Z,28.75
2023-01-29T19:18:56.169Z,28.27
2023-01-29T19:24:14.749Z,29.52
2023-01-29T19:29:29.904Z,30.83
2023-01-29T19:34:38.735Z,31.13
2023-01-29T19:39:44.494Z,35.38
2023-01-29T19:45:01.783Z,36.47
2023-01-29T19:50:10.218Z,41.10
2023-01-29T19:55:14.369Z,39.65
2023-01-29T20:00:19.118Z,40.95
2023-01-29T20:05:22.018Z,46.58
2023-01-29T20:10:26.175Z,42.08
2023-01-29T20:15:26.093Z,42.53
2023-01-29T20:20:23.148Z,43.58
2023-01-29T20:25:26.682Z,42.63
2023-01-29T20:30:25.984Z,46.85
2023-01-29T20:35:27.604Z,46.72
2023-01-29T20:40:27.487Z,49.13
2023-01-29T20:45:24.375Z,46.58
2023-01-29T20:50:20.899Z,42.17
2023-01-29T20:55:17.379Z,47.75
2023-01-29T21:06:14.819Z,44.87
2023-01-29T21:11:11.391Z,45.47
2023-01-29T21:16:10.781Z,44.25
2023-01-29T21:21:07.326Z,47.95
2023-01-29T21:26:05.295Z,44.28
2023-01-29T21:37:02.706Z,44.17
2023-01-29T21:42:18.107Z,46.55
2023-01-29T21:47:20.709Z,44.65
2023-01-29T21:52:19.027Z,46.13
2023-01-29T21:57:23.648Z,41.45
2023-01-29T22:02:22.197Z,41.53
2023-01-29T22:07:21.725Z,42.15
2023-01-29T22:12:25.610Z,42.47
2023-01-29T22:28:32.326Z,48.05
2023-01-29T22:33:33.445Z,42.30
2023-01-29T22:38:30.849Z,41.45
2023-01-29T22:43:33.119Z,37.03
2023-01-29T22:48:36.659Z,37.22
2023-01-29T22:53:33.248Z,38.25
2023-01-29T22:58:29.793Z,38.10
2023-01-29T23:03:28.571Z,34.45
2023-01-29T23:08:29.573Z,33.95
2023-01-29T23:18:56.106Z,34.55
2023-01-29T23:23:55.395Z,34.10
2023-01-29T23:28:56.683Z,35.67
2023-01-29T23:33:54.157Z,30.42
2023-01-29T23:38:50.710Z,31.98
2023-01-29T23:43:47.194Z,32.15
2023-01-29T23:48:43.707Z,32.95
2023-01-29T23:53:43.029Z,35.45
2023-01-29T23:58:39.660Z,30.52
